BIKF/KEF METAR and TAF weather

Enter ICAO airport designator
Station Type Date Time Source
BIKF METAR 2019/12/11 15:00 UTC NOAA

BIKF 111500Z 01024KT 9999 BKN025 BKN180 M02/M06 Q0988


Station Type Date Time Source
BIKF Decoded METAR 2019/12/11 15:00 UTC NOAA

Keflavikurflugvollur, Iceland (BIKF) 63-58N 022-36W 54M
Dec 11, 2019 - 10:00 AM EST / 2019.12.11 1500 UTC
Wind: from the N (010 degrees) at 28 MPH (24 KT):0
Visibility: greater than 7 mile(s):0
Sky conditions: mostly cloudy
Temperature: 28 F (-2 C)
Windchill: 12 F (-11 C):1
Dew Point: 21 F (-6 C)
Relative Humidity: 74%
Pressure (altimeter): 29.18 in. Hg (0988 hPa)
ob: BIKF 111500Z 01024KT 9999 BKN025 BKN180 M02/M06 Q0988
cycle: 15

Station Type Date Time Source
BIKF TAF 2019/12/11 15:00 UTC NOAA

TAF BIKF 111357Z 1115/1215 35020KT 9999 BKN025 TXM01/1115Z TNM02/1209Z
BECMG 1203/1206 05025KT FEW040

Example: see airport list